Sovereign — 9HUE9 — position and weather

sailwx.info

Track history (hours):
 
Tides and Currents Weather Stations Pressure Air Temp Water Temp Dewpoint Dewpoint Depression Visibility Wind Speed Wind Dir Waves Ship Positions

Sovereign

Last reported at 2016-Jul-24 00:33 UTC. Time now 2016-Jul-24 14:42 UTC.
Position N 41°18' E 004°08'.

Length 268 m; draft 7.7 m.

Type: Passenger vessel. MMSI: 249539000.

Date/timePositionNaut miles runAvg speedWind from/ knotsBaromVisibWave heightAir tempDewpointWater temp
2016-Jul-24 00:33N 41°18' E 004°08'1111.1
2016-Jul-23 23:33N 41°18' E 003°53'1111.1
2016-Jul-23 22:33N 41°17' E 003°38'1111.1
2016-Jul-23 21:33N 41°17' E 003°24'1211.3
2016-Jul-23 20:30N 41°17' E 003°08'1111.1
2016-Jul-23 19:33N 41°17' E 002°54'1111.3
2016-Jul-23 18:34N 41°16' E 002°39'1411.5
2016-Jul-23 17:23N 41°16' E 002°21'810.0
2016-Jul-23 16:33N 41°18' E 002°10'3 0.3
2016-Jul-23 06:33N 41°21' E 002°11'2110.4
2016-Jul-23 04:33N 41°16' E 002°37'1615.1
2016-Jul-23 03:31N 41°25' E 002°54'16715.2
2016-Jul-22 16:34N 43°06' E 005°54'0 0.1
2016-Jul-22 15:31N 43°06' E 005°54'0 0.0
2016-Jul-22 14:28N 43°06' E 005°54'0 0.0
2016-Jul-22 13:28N 43°06' E 005°54'0 0.0
2016-Jul-22 12:31N 43°06' E 005°54'0 0.0
2016-Jul-22 11:31N 43°06' E 005°54'0 0.0
2016-Jul-22 10:31N 43°06' E 005°54'0 0.0
2016-Jul-22 09:31N 43°06' E 005°54'0 0.0
2016-Jul-22 08:31N 43°06' E 005°54'0 0.0
2016-Jul-22 07:32N 43°06' E 005°54'2 1.9
2016-Jul-22 06:33N 43°05' E 005°56'6014.7
2016-Jul-22 02:28N 42°59' E 007°18'1616.5
2016-Jul-22 01:29N 43°00' E 007°40'1516.4
2016-Jul-22 00:33N 43°03' E 008°00'1615.7
2016-Jul-21 23:33N 43°08' E 008°21'1515.2
2016-Jul-21 22:33N 43°14' E 008°40'1514.9
2016-Jul-21 21:33N 43°19' E 008°59'1515.1
2016-Jul-21 20:33N 43°24' E 009°19'1515.1
2016-Jul-21 19:33N 43°29' E 009°38'1514.8
2016-Jul-21 18:33N 43°32' E 009°58'1313.4
2016-Jul-21 17:33N 43°32' E 010°17'1 1.4
2016-Jul-21 16:31N 43°33' E 010°18'0 0.0
2016-Jul-21 15:31N 43°33' E 010°18'0 0.0
2016-Jul-21 14:31N 43°33' E 010°18'0 0.0
2016-Jul-21 13:31N 43°33' E 010°18'0 0.0
2016-Jul-21 12:31N 43°33' E 010°18'0 0.0
2016-Jul-21 11:31N 43°33' E 010°18'0 0.0
2016-Jul-21 10:31N 43°33' E 010°18'0 0.0
2016-Jul-21 09:25N 43°33' E 010°18'0 0.0
2016-Jul-21 08:31N 43°33' E 010°18'0 0.0
2016-Jul-21 07:31N 43°33' E 010°18'0 0.0
2016-Jul-21 06:22N 43°33' E 010°18'0 0.0
2016-Jul-21 05:31N 43°33' E 010°18'2 2.4
2016-Jul-21 04:33N 43°32' E 010°16'1010.4
2016-Jul-21 03:33N 43°22' E 010°10'1414.1
2016-Jul-21 02:33N 43°08' E 010°06'1514.7
2016-Jul-21 01:33N 42°54' E 010°01'1513.4
2016-Jul-21 00:27N 42°40' E 010°06'1514.7
2016-Jul-20 23:26N 42°29' E 010°20'3913.1
2016-Jul-20 20:29N 42°01' E 010°56'1414.8
2016-Jul-20 19:32N 41°58' E 011°15'1512.2
2016-Jul-20 18:19N 42°01' E 011°35'33 2.1
2016-Jul-20 02:28N 41°32' E 011°56'1112.0
2016-Jul-20 01:33N 41°23' E 012°04'1413.8
2016-Jul-20 00:33N 41°12' E 012°15'1915.3
2016-Jul-19 23:20N 40°57' E 012°29'1114.7
2016-Jul-19 22:33N 40°51' E 012°42'1515.4
2016-Jul-19 21:33N 40°47' E 013°02'1515.4
2016-Jul-19 20:34N 40°43' E 013°21'1615.6
2016-Jul-19 19:34N 40°39' E 013°41'1414.3
2016-Jul-19 18:33N 40°38' E 013°60'1414.5
2016-Jul-19 17:33N 40°47' E 014°15'17 1.3
2016-Jul-19 04:34N 40°36' E 013°58'1614.3
2016-Jul-19 03:28N 40°30' E 013°39'3615.1
2016-Jul-19 01:06N 40°36' E 012°52'815.3
2016-Jul-19 00:34N 40°37' E 012°41'1515.4
2016-Jul-18 23:33N 40°39' E 012°21'1515.4
2016-Jul-18 22:34N 40°42' E 012°01'1515.4
2016-Jul-18 21:34N 40°44' E 011°41'1515.3
2016-Jul-18 20:34N 40°47' E 011°21'1615.6
2016-Jul-18 19:34N 40°49' E 011°01'1615.5
2016-Jul-18 18:33N 40°51' E 010°41'1515.5
2016-Jul-18 17:34N 40°54' E 010°20'1515.5
2016-Jul-18 16:33N 40°56' E 010°00'105 5.0
2016-Jul-17 19:33N 41°34' E 007°50'2613.1
2016-Jul-17 17:33N 41°44' E 007°17'1313.2
2016-Jul-17 16:33N 41°49' E 007°01'1312.6
2016-Jul-17 15:33N 41°49' E 006°44'1313.0
2016-Jul-17 14:33N 41°47' E 006°27'1312.7
2016-Jul-17 13:33N 41°44' E 006°10'1312.6
2016-Jul-17 12:33N 41°42' E 005°53'1312.7
2016-Jul-17 11:33N 41°40' E 005°37'1312.7
2016-Jul-17 10:33N 41°38' E 005°20'1312.8
2016-Jul-17 09:33N 41°36' E 005°03'2712.7
2016-Jul-17 07:27N 41°31' E 004°28'1112.5
2016-Jul-17 06:33N 41°29' E 004°13'2512.4
2016-Jul-17 04:33N 41°25' E 003°40'1312.4
2016-Jul-17 03:33N 41°23' E 003°24'1211.8
2016-Jul-17 02:33N 41°21' E 003°08'1212.4
2016-Jul-17 01:33N 41°19' E 002°52'3112.3
2016-Jul-16 23:04N 41°16' E 002°12'5 9.0
2016-Jul-16 22:33N 41°21' E 002°10'15 0.7
2016-Jul-16 02:29N 41°07' E 002°04'1617.0
2016-Jul-16 01:33N 40°54' E 001°51'1717.1
2016-Jul-16 00:33N 40°42' E 001°36'1716.8
2016-Jul-15 23:33N 40°30' E 001°20'1717.3
2016-Jul-15 22:33N 40°20' E 001°02'7815.7
2016-Jul-15 17:34N 39°27' W 000°13'4 3.9
2016-Jul-15 16:34N 39°28' W 000°18'0 0.0
2016-Jul-15 15:34N 39°28' W 000°18'0 0.0
2016-Jul-15 14:34N 39°28' W 000°18'0 0.0
2016-Jul-15 13:34N 39°28' W 000°18'0 0.0
2016-Jul-15 12:34N 39°28' W 000°18'0 0.0
2016-Jul-15 11:31N 39°28' W 000°18'0 0.0
2016-Jul-15 10:34N 39°28' W 000°18'0 0.0
2016-Jul-15 09:34N 39°28' W 000°18'0 0.4
2016-Jul-15 08:33N 39°27' W 000°18'8512.1
2016-Jul-15 01:33N 39°14' E 001°30'1817.4
2016-Jul-15 00:31N 38°58' E 001°41'7 6.9
2016-Jul-14 23:33N 38°55' E 001°34'4 0.3
2016-Jul-14 08:30N 38°53' E 001°29'5 5.2
2016-Jul-14 07:33N 38°49' E 001°32'  
Track history (hours):
 
Tides and Currents Weather Stations Pressure Air Temp Water Temp Dewpoint Dewpoint Depression Visibility Wind Speed Wind Dir Waves Ship Positions

Sovereign

Last reported at 2016-Jul-24 00:33 UTC. Time now 2016-Jul-24 14:42 UTC.
Position N 41°18' E 004°08'.

Length 268 m; draft 7.7 m.

Type: Passenger vessel. MMSI: 249539000.

Date/timePositionNaut miles runAvg speedWind from/ knotsBaromVisibWave heightAir tempDewpointWater temp
2016-Jul-24 00:33N 41°18' E 004°08'1111.1
2016-Jul-23 23:33N 41°18' E 003°53'1111.1
2016-Jul-23 22:33N 41°17' E 003°38'1111.1
2016-Jul-23 21:33N 41°17' E 003°24'1211.3
2016-Jul-23 20:30N 41°17' E 003°08'1111.1
2016-Jul-23 19:33N 41°17' E 002°54'1111.3
2016-Jul-23 18:34N 41°16' E 002°39'1411.5
2016-Jul-23 17:23N 41°16' E 002°21'810.0
2016-Jul-23 16:33N 41°18' E 002°10'3 0.3
2016-Jul-23 06:33N 41°21' E 002°11'2110.4
2016-Jul-23 04:33N 41°16' E 002°37'1615.1
2016-Jul-23 03:31N 41°25' E 002°54'16715.2
2016-Jul-22 16:34N 43°06' E 005°54'0 0.1
2016-Jul-22 15:31N 43°06' E 005°54'0 0.0
2016-Jul-22 14:28N 43°06' E 005°54'0 0.0
2016-Jul-22 13:28N 43°06' E 005°54'0 0.0
2016-Jul-22 12:31N 43°06' E 005°54'0 0.0
2016-Jul-22 11:31N 43°06' E 005°54'0 0.0
2016-Jul-22 10:31N 43°06' E 005°54'0 0.0
2016-Jul-22 09:31N 43°06' E 005°54'0 0.0
2016-Jul-22 08:31N 43°06' E 005°54'0 0.0
2016-Jul-22 07:32N 43°06' E 005°54'2 1.9
2016-Jul-22 06:33N 43°05' E 005°56'6014.7
2016-Jul-22 02:28N 42°59' E 007°18'1616.5
2016-Jul-22 01:29N 43°00' E 007°40'1516.4
2016-Jul-22 00:33N 43°03' E 008°00'1615.7
2016-Jul-21 23:33N 43°08' E 008°21'1515.2
2016-Jul-21 22:33N 43°14' E 008°40'1514.9
2016-Jul-21 21:33N 43°19' E 008°59'1515.1
2016-Jul-21 20:33N 43°24' E 009°19'1515.1
2016-Jul-21 19:33N 43°29' E 009°38'1514.8
2016-Jul-21 18:33N 43°32' E 009°58'1313.4
2016-Jul-21 17:33N 43°32' E 010°17'1 1.4
2016-Jul-21 16:31N 43°33' E 010°18'0 0.0
2016-Jul-21 15:31N 43°33' E 010°18'0 0.0
2016-Jul-21 14:31N 43°33' E 010°18'0 0.0
2016-Jul-21 13:31N 43°33' E 010°18'0 0.0
2016-Jul-21 12:31N 43°33' E 010°18'0 0.0
2016-Jul-21 11:31N 43°33' E 010°18'0 0.0
2016-Jul-21 10:31N 43°33' E 010°18'0 0.0
2016-Jul-21 09:25N 43°33' E 010°18'0 0.0
2016-Jul-21 08:31N 43°33' E 010°18'0 0.0
2016-Jul-21 07:31N 43°33' E 010°18'0 0.0
2016-Jul-21 06:22N 43°33' E 010°18'0 0.0
2016-Jul-21 05:31N 43°33' E 010°18'2 2.4
2016-Jul-21 04:33N 43°32' E 010°16'1010.4
2016-Jul-21 03:33N 43°22' E 010°10'1414.1
2016-Jul-21 02:33N 43°08' E 010°06'1514.7
2016-Jul-21 01:33N 42°54' E 010°01'1513.4
2016-Jul-21 00:27N 42°40' E 010°06'1514.7
2016-Jul-20 23:26N 42°29' E 010°20'3913.1
2016-Jul-20 20:29N 42°01' E 010°56'1414.8
2016-Jul-20 19:32N 41°58' E 011°15'1512.2
2016-Jul-20 18:19N 42°01' E 011°35'33 2.1
2016-Jul-20 02:28N 41°32' E 011°56'1112.0
2016-Jul-20 01:33N 41°23' E 012°04'1413.8
2016-Jul-20 00:33N 41°12' E 012°15'1915.3
2016-Jul-19 23:20N 40°57' E 012°29'1114.7
2016-Jul-19 22:33N 40°51' E 012°42'1515.4
2016-Jul-19 21:33N 40°47' E 013°02'1515.4
2016-Jul-19 20:34N 40°43' E 013°21'1615.6
2016-Jul-19 19:34N 40°39' E 013°41'1414.3
2016-Jul-19 18:33N 40°38' E 013°60'1414.5
2016-Jul-19 17:33N 40°47' E 014°15'17 1.3
2016-Jul-19 04:34N 40°36' E 013°58'1614.3
2016-Jul-19 03:28N 40°30' E 013°39'3615.1
2016-Jul-19 01:06N 40°36' E 012°52'815.3
2016-Jul-19 00:34N 40°37' E 012°41'1515.4
2016-Jul-18 23:33N 40°39' E 012°21'1515.4
2016-Jul-18 22:34N 40°42' E 012°01'1515.4
2016-Jul-18 21:34N 40°44' E 011°41'1515.3
2016-Jul-18 20:34N 40°47' E 011°21'1615.6
2016-Jul-18 19:34N 40°49' E 011°01'1615.5
2016-Jul-18 18:33N 40°51' E 010°41'1515.5
2016-Jul-18 17:34N 40°54' E 010°20'1515.5
2016-Jul-18 16:33N 40°56' E 010°00'105 5.0
2016-Jul-17 19:33N 41°34' E 007°50'2613.1
2016-Jul-17 17:33N 41°44' E 007°17'1313.2
2016-Jul-17 16:33N 41°49' E 007°01'1312.6
2016-Jul-17 15:33N 41°49' E 006°44'1313.0
2016-Jul-17 14:33N 41°47' E 006°27'1312.7
2016-Jul-17 13:33N 41°44' E 006°10'1312.6
2016-Jul-17 12:33N 41°42' E 005°53'1312.7
2016-Jul-17 11:33N 41°40' E 005°37'1312.7
2016-Jul-17 10:33N 41°38' E 005°20'1312.8
2016-Jul-17 09:33N 41°36' E 005°03'2712.7
2016-Jul-17 07:27N 41°31' E 004°28'1112.5
2016-Jul-17 06:33N 41°29' E 004°13'2512.4
2016-Jul-17 04:33N 41°25' E 003°40'1312.4
2016-Jul-17 03:33N 41°23' E 003°24'1211.8
2016-Jul-17 02:33N 41°21' E 003°08'1212.4
2016-Jul-17 01:33N 41°19' E 002°52'3112.3
2016-Jul-16 23:04N 41°16' E 002°12'5 9.0
2016-Jul-16 22:33N 41°21' E 002°10'15 0.7
2016-Jul-16 02:29N 41°07' E 002°04'1617.0
2016-Jul-16 01:33N 40°54' E 001°51'1717.1
2016-Jul-16 00:33N 40°42' E 001°36'1716.8
2016-Jul-15 23:33N 40°30' E 001°20'1717.3
2016-Jul-15 22:33N 40°20' E 001°02'7815.7
2016-Jul-15 17:34N 39°27' W 000°13'4 3.9
2016-Jul-15 16:34N 39°28' W 000°18'0 0.0
2016-Jul-15 15:34N 39°28' W 000°18'0 0.0
2016-Jul-15 14:34N 39°28' W 000°18'0 0.0
2016-Jul-15 13:34N 39°28' W 000°18'0 0.0
2016-Jul-15 12:34N 39°28' W 000°18'0 0.0
2016-Jul-15 11:31N 39°28' W 000°18'0 0.0
2016-Jul-15 10:34N 39°28' W 000°18'0 0.0
2016-Jul-15 09:34N 39°28' W 000°18'0 0.4
2016-Jul-15 08:33N 39°27' W 000°18'8512.1
2016-Jul-15 01:33N 39°14' E 001°30'1817.4
2016-Jul-15 00:31N 38°58' E 001°41'7 6.9
2016-Jul-14 23:33N 38°55' E 001°34'4 0.3
2016-Jul-14 08:30N 38°53' E 001°29'5 5.2
2016-Jul-14 07:33N 38°49' E 001°32'  

Dump ship's entire track history